Last 6 Hours

AM-Roundhouse Btm 6950'

15 Minute Data | America/Los_Angeles
as of 6/27/22 6:08 PM PDT
Date & Time Temp (°F) RH (%) Dew Pt (°F) Wet Bulb (°F) Wind Dir (°) Wind Spd (mph) Wind Gust (mph) WindChill (°F) Barometric Press (inHg) SnowDepth (in) Latest Rain (In) Daily Rain (In) Daily Min Temp (°F) Daily Max Temp (°F)
6/27/22 - 1800 73.1 21 31.4 50.5 NE | 34 3.8 10.8 73.1 30.31 0.8 0.00 0.00 57.1 76.4
6/27/22 - 1745 73.3 20 30.0 50.2 SE | 144 5.0 14.9 73.3 30.31 0.0 0.00 0.00 57.1 76.4
6/27/22 - 1730 73.2 20 29.5 50.0 ESE | 111 4.1 12.5 73.2 30.31 0.0 0.00 0.00 57.1 76.4
6/27/22 - 1715 74.0 20 30.4 50.6 SE | 133 4.2 15.8 74.0 30.31 0.0 0.00 0.00 57.1 76.4
6/27/22 - 1700 73.7 20 30.0 50.3 SE | 138 5.4 12.3 73.7 30.32 0.0 0.00 0.00 57.1 76.4
6/27/22 - 1645 73.5 21 31.5 50.8 SE | 129 5.5 13.3 73.5 30.32 0.1 0.00 0.00 57.1 76.4
6/27/22 - 1630 73.9 20 30.5 50.6 SSE | 147 5.5 19.1 73.9 30.32 0.0 0.00 0.00 57.1 76.4
6/27/22 - 1615 74.2 22 33.1 51.6 SE | 133 4.3 17.1 74.2 30.32 0.1 0.00 0.00 57.1 76.4
6/27/22 - 1600 74.5 20 30.4 50.8 E | 80 3.8 10.5 74.5 30.33 0.1 0.00 0.00 57.1 76.4
6/27/22 - 1545 74.3 21 32.1 51.2 ESE | 111 4.6 12.2 74.3 30.33 0.3 0.00 0.00 57.1 76.4
6/27/22 - 1530 74.1 20 30.2 50.6 SE | 134 5.8 15.6 74.1 30.33 0.4 0.00 0.00 57.1 76.4
6/27/22 - 1515 74.6 22 32.9 51.6 SE | 128 4.4 13.2 74.6 30.33 0.6 0.00 0.00 57.1 76.4
6/27/22 - 1500 74.2 20 30.9 50.8 SE | 128 3.8 13.7 74.2 30.33 0.2 0.00 0.00 57.1 76.4
6/27/22 - 1445 74.4 21 31.7 51.2 SE | 136 3.4 11.3 74.4 30.34 0.3 0.00 0.00 57.1 76.4
6/27/22 - 1430 74.8 23 35.1 52.4 E | 101 4.1 13.9 74.8 30.33 0.3 0.00 0.00 57.1 76.4
6/27/22 - 1415 75.3 24 36.4 53.1 E | 96 4.3 13.2 75.3 30.34 0.5 0.00 0.00 57.1 76.4
6/27/22 - 1400 75.4 21 33.0 52.0 ESE | 113 5.6 13.3 75.4 30.34 0.4 0.00 0.00 57.1 76.4
6/27/22 - 1345 75.0 21 32.9 51.8 SSE | 148 4.5 17.2 75.0 30.34 0.2 0.00 0.00 57.1 76.4
6/27/22 - 1330 75.0 24 35.4 52.6 SE | 129 5.1 14.6 75.0 30.34 0.5 0.00 0.00 57.1 76.4
6/27/22 - 1315 75.7 19 30.2 51.2 SE | 134 4.8 13.8 75.7 30.34 0.3 0.00 0.00 57.1 76.4
6/27/22 - 1300 75.0 20 31.8 51.4 SE | 124 6.2 12.2 75.0 30.34 0.5 0.00 0.00 57.1 76.4
6/27/22 - 1245 75.0 24 35.6 52.7 ESE | 115 5.2 14.9 75.0 30.34 0.4 0.00 0.00 57.1 76.4
6/27/22 - 1230 75.4 24 36.1 53.0 SSE | 163 4.6 11.4 75.4 30.33 0.4 0.00 0.00 57.1 76.4
6/27/22 - 1215 76.2 25 37.6 53.9 SSE | 160 4.0 10.2 76.2 30.34 0.0 0.00 0.00 57.1 76.4
Max 76.2 25 37.6 53.9 - 6.2 19.1 76.2 30.34 0.8 0.00 0.00 57.1 76.4
Avg 74.5 21 32.4 51.4 - 4.7 13.6 74.5 30.33 0.3 0.00 - - -
Min 73.1 19 29.5 50.0 - 3.4 10.2 73.1 30.31 0.0 0.00 0.00 57.1 76.4
Total - - - - - - - - - - 0.00 - - -